Time;durP1;ratioP1;P1;durP2;ratioP2;P2;SDS_P1;SDS_P2;PMS_P1;PMS_P2;Temp;Humidity;BMP_temperature;BMP_pressure;BME280_temperature;BME280_humidity;BME280_pressure;Samples;Min_cycle;Max_cycle;Signal;HPM_P1;HPM_P2
2021/05/08 00:01:43;;;;;;;22.37;7.35;;;;;;;18.32;60.98;100817.13;1769347;80;21588;-50
2021/05/08 00:04:11;;;;;;;14.45;7.33;;;;;;;18.26;61.16;100816.63;1769495;81;21148;-48
2021/05/08 00:06:39;;;;;;;22.13;8.23;;;;;;;18.25;61.13;100817.08;1775146;81;21216;-47
2021/05/08 00:09:08;;;;;;;18.60;7.92;;;;;;;18.22;61.19;100816.36;1769002;81;21173;-50
2021/05/08 00:11:36;;;;;;;17.87;7.95;;;;;;;18.19;61.26;100814.77;1779114;81;21174;-47
2021/05/08 00:14:05;;;;;;;15.75;6.45;;;;;;;18.16;61.39;100803.52;1776021;81;21155;-48
2021/05/08 00:16:33;;;;;;;24.15;8.35;;;;;;;18.19;61.34;100804.69;1760814;81;21184;-50
2021/05/08 00:19:03;;;;;;;16.55;7.42;;;;;;;18.19;61.32;100794.16;1759948;81;21172;-50
2021/05/08 00:21:31;;;;;;;18.02;7.15;;;;;;;18.19;61.28;100795.02;1761866;81;21171;-48
2021/05/08 00:23:59;;;;;;;22.87;7.67;;;;;;;18.17;61.23;100789.43;1766549;81;21137;-48
2021/05/08 00:26:27;;;;;;;18.48;7.60;;;;;;;18.15;61.27;100788.66;1766727;81;21141;-49
2021/05/08 00:28:57;;;;;;;16.65;7.22;;;;;;;18.14;61.35;100786.95;1769719;80;21570;-52
2021/05/08 00:31:24;;;;;;;19.67;7.58;;;;;;;18.14;61.31;100785.63;1730138;82;21161;-47
2021/05/08 00:33:52;;;;;;;18.12;8.15;;;;;;;18.13;61.38;100782.63;1760959;81;21157;-51
2021/05/08 00:36:21;;;;;;;18.40;8.08;;;;;;;18.12;61.35;100780.91;1775877;81;21152;-47
2021/05/08 00:38:49;;;;;;;18.85;8.03;;;;;;;18.14;61.39;100789.58;1729198;82;21211;-47
2021/05/08 00:41:17;;;;;;;20.23;8.08;;;;;;;18.13;61.40;100785.26;1759980;80;21596;-50
2021/05/08 00:43:45;;;;;;;25.65;9.23;;;;;;;18.12;61.55;100787.48;1762467;81;21149;-51
2021/05/08 00:46:14;;;;;;;17.25;6.92;;;;;;;18.11;61.64;100793.25;1741917;81;21561;-49
2021/05/08 00:48:42;;;;;;;22.27;8.05;;;;;;;18.11;61.82;100796.34;1724492;82;21161;-51
2021/05/08 00:51:10;;;;;;;16.02;7.37;;;;;;;18.13;61.92;100793.16;1764274;80;21583;-47
2021/05/08 00:53:39;;;;;;;25.45;9.08;;;;;;;18.14;61.97;100784.31;1756906;81;21332;-49
2021/05/08 00:56:07;;;;;;;28.12;9.40;;;;;;;18.17;61.96;100784.16;1764460;81;21149;-50
2021/05/08 00:58:35;;;;;;;31.65;9.48;;;;;;;18.19;61.89;100783.16;1762597;81;21188;-47
2021/05/08 01:01:03;;;;;;;27.45;9.93;;;;;;;18.23;61.76;100781.20;1766712;81;21299;-49
2021/05/08 01:03:32;;;;;;;25.65;8.88;;;;;;;18.22;61.63;100765.86;1729799;82;21160;-49
2021/05/08 01:06:01;;;;;;;22.48;8.65;;;;;;;18.22;61.67;100772.91;1766323;81;21144;-48
2021/05/08 01:08:31;;;;;;;24.72;9.75;;;;;;;18.22;61.53;100772.91;1730370;82;21145;-46
2021/05/08 01:10:59;;;;;;;33.30;9.80;;;;;;;18.22;61.57;100772.91;1758051;80;21175;-46
2021/05/08 01:13:29;;;;;;;19.00;8.58;;;;;;;18.23;61.40;100775.94;1751186;81;21164;-47
2021/05/08 01:15:58;;;;;;;20.65;8.30;;;;;;;18.23;61.36;100775.94;1760236;81;21529;-49
2021/05/08 01:18:26;;;;;;;25.90;9.83;;;;;;;18.21;61.30;100760.69;1759732;81;21153;-47
2021/05/08 01:20:54;;;;;;;31.30;11.40;;;;;;;18.19;61.31;100767.81;1703353;83;21554;-46
2021/05/08 01:23:23;;;;;;;20.70;9.13;;;;;;;18.16;61.20;100764.02;1757546;81;21156;-49
2021/05/08 01:25:51;;;;;;;31.73;9.23;;;;;;;18.16;61.09;100764.02;1732745;82;21151;-51
2021/05/08 01:28:21;;;;;;;24.07;8.33;;;;;;;18.15;61.09;100764.96;1726366;82;21140;-47
2021/05/08 01:30:49;;;;;;;25.23;9.68;;;;;;;18.13;61.05;100753.66;1726741;82;21283;-49
2021/05/08 01:33:17;;;;;;;26.42;8.93;;;;;;;18.11;60.99;100752.89;1727665;82;21649;-50
2021/05/08 01:35:45;;;;;;;29.90;8.53;;;;;;;18.09;61.00;100738.95;1738391;81;21581;-47
2021/05/08 01:38:14;;;;;;;27.45;9.58;;;;;;;18.06;60.98;100736.47;1757181;81;21317;-50
2021/05/08 01:40:42;;;;;;;25.48;8.53;;;;;;;18.02;61.17;100738.42;1743432;81;21165;-49
2021/05/08 01:43:15;;;;;;;23.95;9.25;;;;;;;18.00;61.25;100744.23;1731637;81;21376;-48
2021/05/08 01:45:43;;;;;;;32.05;9.93;;;;;;;18.00;61.32;100736.79;1697483;83;21168;-50
2021/05/08 01:48:11;;;;;;;20.88;7.92;;;;;;;17.98;61.47;100739.51;1713091;82;21199;-52
2021/05/08 01:50:39;;;;;;;23.20;8.00;;;;;;;17.97;61.50;100739.11;1714149;83;21173;-49
2021/05/08 01:53:07;;;;;;;27.85;8.68;;;;;;;17.95;61.60;100728.30;1736103;81;21160;-49
2021/05/08 01:55:36;;;;;;;21.17;7.10;;;;;;;17.95;61.63;100721.72;1737025;81;21137;-47
2021/05/08 01:58:07;;;;;;;16.20;6.78;;;;;;;17.93;61.66;100717.00;1675360;84;21188;-49
2021/05/08 02:00:41;;;;;;;15.53;6.50;;;;;;;17.92;61.77;100707.38;1753978;81;21192;-49
2021/05/08 02:03:10;;;;;;;17.07;7.45;;;;;;;17.94;61.76;100706.84;1700584;84;21162;-47
2021/05/08 02:05:40;;;;;;;23.02;7.30;;;;;;;17.92;61.77;100704.30;1719544;83;21186;-50
2021/05/08 02:08:12;;;;;;;18.23;8.20;;;;;;;17.91;61.70;100705.20;1725625;83;21168;-46
2021/05/08 02:10:43;;;;;;;16.62;6.97;;;;;;;17.89;61.68;100704.44;1722892;83;21200;-47
2021/05/08 02:13:13;;;;;;;19.90;7.12;;;;;;;17.85;61.87;100703.76;1728840;83;21156;-45
2021/05/08 02:15:43;;;;;;;25.17;7.30;;;;;;;17.83;61.97;100701.67;1728827;83;21148;-46
2021/05/08 02:18:12;;;;;;;17.60;6.95;;;;;;;17.83;62.17;100704.30;1726283;83;21164;-46
2021/05/08 02:20:41;;;;;;;22.25;8.08;;;;;;;17.83;62.26;100712.20;1726340;83;21182;-46
2021/05/08 02:23:13;;;;;;;16.82;7.37;;;;;;;17.84;62.42;100713.92;1729352;83;21581;-46
2021/05/08 02:25:48;;;;;;;18.65;7.72;;;;;;;17.88;62.59;100710.19;1771579;79;23048;-50
2021/05/08 02:28:16;;;;;;;20.00;7.60;;;;;;;17.83;62.68;100714.83;1738800;82;21168;-47
2021/05/08 02:30:44;;;;;;;25.90;9.03;;;;;;;17.83;62.80;100716.15;1737134;81;21164;-47
2021/05/08 02:33:13;;;;;;;23.95;7.97;;;;;;;17.84;62.86;100715.69;1734415;82;21597;-49
2021/05/08 02:35:42;;;;;;;19.87;7.20;;;;;;;17.82;62.90;100710.52;1742696;82;21132;-49
2021/05/08 02:38:10;;;;;;;15.90;5.92;;;;;;;17.82;62.91;100705.25;1731917;82;21152;-48
2021/05/08 02:40:39;;;;;;;20.25;7.50;;;;;;;17.83;62.90;100695.09;1724845;82;21196;-50
2021/05/08 02:43:10;;;;;;;25.37;8.50;;;;;;;17.82;62.87;100698.67;1743638;82;21156;-48
2021/05/08 02:45:39;;;;;;;19.62;8.40;;;;;;;17.82;62.92;100696.04;1729229;82;21314;-48
2021/05/08 02:48:08;;;;;;;25.72;8.08;;;;;;;17.82;62.92;100705.25;1736734;81;21577;-50
2021/05/08 02:50:45;;;;;;;19.25;6.80;;;;;;;17.85;62.94;100710.34;1770793;79;22896;-50
2021/05/08 02:53:13;;;;;;;22.25;8.43;;;;;;;17.80;63.06;100707.08;1733170;82;21164;-47
2021/05/08 02:55:42;;;;;;;22.77;7.78;;;;;;;17.80;63.18;100700.50;1738483;82;21290;-48
2021/05/08 02:58:09;;;;;;;12.88;6.30;;;;;;;17.81;63.21;100711.43;1718959;82;21156;-48
2021/05/08 03:00:40;;;;;;;17.10;6.15;;;;;;;17.82;63.22;100701.77;1736767;82;21176;-53
2021/05/08 03:03:10;;;;;;;15.80;6.28;;;;;;;17.83;63.25;100689.83;1730751;82;21133;-44
2021/05/08 03:05:39;;;;;;;21.07;6.78;;;;;;;17.85;63.36;100684.47;1744527;82;21584;-51
2021/05/08 03:08:09;;;;;;;16.65;6.22;;;;;;;17.83;63.42;100680.61;1735517;82;21109;-48
2021/05/08 03:10:37;;;;;;;19.92;6.03;;;;;;;17.89;63.27;100669.76;1737544;82;21192;-51
2021/05/08 03:13:05;;;;;;;11.45;5.80;;;;;;;17.89;63.19;100669.76;1738001;82;21148;-45
2021/05/08 03:15:33;;;;;;;12.28;5.90;;;;;;;17.89;63.17;100663.18;1734140;82;21156;-49
2021/05/08 03:18:03;;;;;;;20.48;5.80;;;;;;;17.91;63.25;100666.21;1741074;82;21160;-51
2021/05/08 03:20:31;;;;;;;18.23;6.28;;;;;;;17.92;63.21;100670.53;1741069;82;21144;-51
2021/05/08 03:22:59;;;;;;;18.23;7.15;;;;;;;17.95;63.24;100682.23;1739136;82;21172;-47
2021/05/08 03:25:27;;;;;;;11.68;5.72;;;;;;;18.00;63.24;100694.66;1739220;82;21176;-51
2021/05/08 03:27:55;;;;;;;15.80;6.40;;;;;;;18.06;63.22;100715.40;1740298;82;21298;-50
2021/05/08 03:30:26;;;;;;;13.70;6.28;;;;;;;18.15;63.12;100757.06;1736116;82;21129;-49
2021/05/08 03:32:56;;;;;;;12.33;6.50;;;;;;;18.23;63.06;100750.45;1742477;82;21177;-48
2021/05/08 03:35:24;;;;;;;10.45;4.65;;;;;;;18.27;63.20;100730.06;1740423;82;21577;-47
2021/05/08 03:37:53;;;;;;;12.47;5.35;;;;;;;18.31;63.24;100713.16;1738153;82;21144;-49
2021/05/08 03:40:22;;;;;;;10.65;5.05;;;;;;;18.34;63.26;100729.64;1737898;82;21145;-47
2021/05/08 03:42:50;;;;;;;10.85;4.62;;;;;;;18.39;63.29;100729.41;1737966;82;21137;-47
2021/05/08 03:45:18;;;;;;;10.28;5.80;;;;;;;18.44;63.19;100726.09;1734957;82;22239;-50
2021/05/08 03:47:46;;;;;;;9.40;5.05;;;;;;;18.49;63.04;100749.08;1738670;82;21168;-48
2021/05/08 03:50:15;;;;;;;12.53;6.03;;;;;;;18.54;62.92;100760.23;1739723;82;21121;-52
2021/05/08 03:52:43;;;;;;;15.48;5.83;;;;;;;18.59;62.81;100722.60;1741284;82;21159;-50
2021/05/08 03:55:12;;;;;;;20.37;7.70;;;;;;;18.62;62.78;100691.69;1741874;82;21164;-47
2021/05/08 03:57:39;;;;;;;14.98;5.85;;;;;;;18.65;62.75;100734.12;1741911;82;21140;-49
2021/05/08 04:00:09;;;;;;;12.40;5.15;;;;;;;18.70;62.90;100740.00;1739581;82;21120;-49
2021/05/08 04:02:40;;;;;;;21.50;7.28;;;;;;;18.76;62.80;100693.99;1738514;82;21117;-47
2021/05/08 04:05:10;;;;;;;23.70;7.80;;;;;;;18.79;62.64;100702.60;1737896;82;21168;-49
2021/05/08 04:07:38;;;;;;;23.18;7.00;;;;;;;18.84;62.43;100729.54;1731839;82;21735;-51
2021/05/08 04:10:07;;;;;;;19.48;6.75;;;;;;;18.91;62.35;100723.46;1738052;82;21152;-48
2021/05/08 04:12:35;;;;;;;12.78;5.75;;;;;;;18.98;62.09;100719.06;1737599;82;21160;-47
2021/05/08 04:15:07;;;;;;;18.45;6.05;;;;;;;19.04;61.91;100731.89;1739778;82;21298;-47
2021/05/08 04:17:34;;;;;;;13.70;6.33;;;;;;;19.13;61.77;100745.89;1733064;82;21164;-47
2021/05/08 04:20:04;;;;;;;13.00;4.92;;;;;;;19.21;61.51;100746.30;1739145;82;21121;-49
2021/05/08 04:22:32;;;;;;;16.65;5.33;;;;;;;19.28;61.30;100748.98;1739479;82;21183;-47
2021/05/08 04:25:00;;;;;;;14.63;5.30;;;;;;;19.37;61.04;100744.50;1738713;82;21176;-53
2021/05/08 04:27:28;;;;;;;17.35;5.55;;;;;;;19.45;61.01;100738.31;1737978;82;21192;-49
2021/05/08 04:29:57;;;;;;;15.23;6.40;;;;;;;19.59;60.56;100728.74;1734845;82;21124;-49
2021/05/08 04:32:25;;;;;;;16.57;6.33;;;;;;;19.73;59.97;100731.41;1741327;82;21321;-47
2021/05/08 04:34:53;;;;;;;17.15;5.83;;;;;;;19.84;59.62;100743.51;1737442;82;21596;-49
2021/05/08 04:37:21;;;;;;;15.55;5.42;;;;;;;19.94;59.26;100743.33;1733709;82;21313;-48
2021/05/08 04:39:50;;;;;;;15.72;5.85;;;;;;;19.97;59.09;100749.77;1738453;81;21193;-51
2021/05/08 04:42:18;;;;;;;12.85;5.87;;;;;;;20.08;58.73;100764.47;1738004;82;21208;-49
2021/05/08 04:44:45;;;;;;;16.55;5.80;;;;;;;19.90;59.04;100779.65;1736452;81;21132;-47
2021/05/08 04:47:15;;;;;;;16.42;6.03;;;;;;;20.08;58.58;100780.32;1740526;82;21164;-47
2021/05/08 04:49:45;;;;;;;13.88;4.92;;;;;;;20.12;58.41;100791.08;1741205;81;21153;-47
2021/05/08 04:52:13;;;;;;;11.25;5.03;;;;;;;20.11;58.35;100809.21;1740284;82;21188;-48
2021/05/08 04:54:40;;;;;;;11.75;5.75;;;;;;;20.11;58.44;100817.14;1738227;81;21644;-47
2021/05/08 04:57:08;;;;;;;10.13;5.00;;;;;;;20.10;58.50;100836.55;1738490;82;21136;-49
2021/05/08 04:59:36;;;;;;;12.07;5.10;;;;;;;20.09;58.43;100834.88;1737907;82;21541;-48
2021/05/08 05:02:04;;;;;;;9.95;4.65;;;;;;;20.07;58.35;100856.56;1738231;82;21153;-50
2021/05/08 05:04:32;;;;;;;8.85;4.40;;;;;;;20.03;58.30;100849.77;1734876;82;21156;-50
2021/05/08 05:07:00;;;;;;;8.60;4.47;;;;;;;20.01;58.49;100860.89;1741196;82;21305;-47
2021/05/08 05:09:29;;;;;;;10.05;5.00;;;;;;;19.98;58.73;100876.91;1741212;82;21165;-51
2021/05/08 05:11:58;;;;;;;8.25;5.08;;;;;;;19.97;58.82;100893.71;1739765;82;21117;-48
2021/05/08 05:14:27;;;;;;;10.13;5.05;;;;;;;19.96;58.90;100907.84;1738494;82;21329;-48
2021/05/08 05:16:55;;;;;;;11.33;5.10;;;;;;;19.95;59.04;100916.69;1737687;82;21283;-50
2021/05/08 05:19:24;;;;;;;12.50;5.62;;;;;;;19.91;59.20;100916.48;1737970;82;21310;-46
2021/05/08 05:21:52;;;;;;;13.05;4.83;;;;;;;19.88;59.34;100907.44;1736850;82;21120;-51
2021/05/08 05:24:20;;;;;;;9.48;4.67;;;;;;;19.85;59.50;100904.95;1738106;82;21282;-46
2021/05/08 05:26:49;;;;;;;8.28;4.80;;;;;;;19.82;59.70;100902.51;1734534;82;21180;-48
2021/05/08 05:29:17;;;;;;;10.40;6.28;;;;;;;19.78;59.79;100890.42;1741224;82;21188;-49
2021/05/08 05:31:44;;;;;;;7.80;5.58;;;;;;;19.76;59.94;100885.70;1740401;82;21173;-47
2021/05/08 05:34:14;;;;;;;7.58;6.37;;;;;;;19.77;60.04;100878.14;1738586;81;21152;-48
2021/05/08 05:36:42;;;;;;;8.40;5.58;;;;;;;19.75;59.85;100869.45;1733864;82;21140;-49
2021/05/08 05:39:10;;;;;;;10.13;6.00;;;;;;;19.68;59.90;100844.37;1738795;82;21108;-46
2021/05/08 05:41:38;;;;;;;8.60;6.10;;;;;;;19.69;60.04;100846.05;1732289;82;21149;-50
2021/05/08 05:44:06;;;;;;;7.30;6.10;;;;;;;19.73;59.89;100839.66;1732228;82;21188;-47
2021/05/08 05:46:35;;;;;;;9.75;6.17;;;;;;;19.74;59.97;100833.45;1732202;82;21636;-46
2021/05/08 05:49:03;;;;;;;8.13;5.53;;;;;;;19.77;60.17;100831.94;1730453;82;21143;-49
2021/05/08 05:51:31;;;;;;;9.48;5.85;;;;;;;19.88;60.31;100840.09;1723489;82;21116;-49
2021/05/08 05:53:59;;;;;;;9.70;5.78;;;;;;;20.08;60.01;100852.97;1729302;82;21306;-47
2021/05/08 05:56:28;;;;;;;9.10;6.00;;;;;;;20.27;59.78;100850.97;1730220;82;21196;-50
2021/05/08 05:58:57;;;;;;;6.55;5.25;;;;;;;20.39;59.39;100853.33;1726519;82;21573;-52
2021/05/08 06:01:25;;;;;;;6.65;5.20;;;;;;;20.42;59.25;100850.06;1735467;82;21101;-47
2021/05/08 06:03:52;;;;;;;7.90;5.55;;;;;;;20.40;59.17;100875.73;1737923;82;21263;-50
2021/05/08 06:06:20;;;;;;;4.62;3.85;;;;;;;20.33;58.87;100877.49;1729394;82;21617;-47
2021/05/08 06:08:48;;;;;;;3.95;3.10;;;;;;;20.13;58.63;100874.70;1736094;82;21141;-51
2021/05/08 06:11:16;;;;;;;5.97;3.92;;;;;;;19.97;58.77;100880.01;1725200;82;21142;-46
2021/05/08 06:13:45;;;;;;;11.15;2.72;;;;;;;19.78;59.12;100891.28;1724385;82;21149;-47
2021/05/08 06:16:13;;;;;;;1.92;1.70;;;;;;;19.56;59.04;100905.78;1738004;82;21151;-49
2021/05/08 06:18:43;;;;;;;7.05;1.85;;;;;;;19.29;58.79;100913.38;1727136;82;21132;-51
2021/05/08 06:21:10;;;;;;;2.90;1.12;;;;;;;18.96;58.41;100931.89;1720846;82;21613;-51
2021/05/08 06:23:39;;;;;;;3.22;1.40;;;;;;;18.68;58.52;100944.84;1737094;82;21152;-52
2021/05/08 06:26:07;;;;;;;4.35;2.12;;;;;;;18.49;59.31;100941.44;1724950;82;21173;-50
2021/05/08 06:28:35;;;;;;;2.35;1.30;;;;;;;18.45;59.62;100934.62;1721510;82;21168;-49
2021/05/08 06:31:02;;;;;;;3.17;1.32;;;;;;;18.42;59.37;100932.13;1728469;82;21157;-50
2021/05/08 06:33:31;;;;;;;8.10;1.47;;;;;;;18.43;59.18;100954.89;1728594;82;21723;-51
2021/05/08 06:35:59;;;;;;;4.12;1.52;;;;;;;18.46;59.08;100954.78;1726745;82;21131;-50
2021/05/08 06:38:27;;;;;;;1.90;1.02;;;;;;;18.55;58.87;100949.02;1724082;82;21156;-52
2021/05/08 06:40:57;;;;;;;1.60;0.70;;;;;;;18.58;58.64;100954.16;1733553;82;21113;-51
2021/05/08 06:43:25;;;;;;;5.67;1.17;;;;;;;18.59;58.95;100954.52;1730616;82;21614;-47
2021/05/08 06:45:54;;;;;;;3.77;1.30;;;;;;;18.62;58.72;100953.06;1723708;82;21160;-46
2021/05/08 06:48:23;;;;;;;2.85;1.45;;;;;;;18.56;58.79;100966.09;1723222;82;21188;-48
2021/05/08 06:50:52;;;;;;;5.67;1.55;;;;;;;18.50;58.88;100978.27;1735608;81;21153;-47
2021/05/08 06:53:21;;;;;;;2.05;0.98;;;;;;;18.40;58.97;100962.97;1737231;82;21549;-49
2021/05/08 06:55:48;;;;;;;0.95;0.82;;;;;;;18.27;59.03;100943.42;1737550;82;21160;-50
2021/05/08 06:58:16;;;;;;;2.17;0.90;;;;;;;18.19;59.61;100961.40;1737247;82;21164;-48
2021/05/08 07:00:44;;;;;;;2.45;1.05;;;;;;;18.16;59.91;100977.34;1730475;82;21136;-49
2021/05/08 07:03:14;;;;;;;1.87;1.00;;;;;;;18.14;60.40;101001.12;1736220;82;21204;-50
2021/05/08 07:05:42;;;;;;;3.02;1.00;;;;;;;18.11;60.32;100995.16;1739099;82;21159;-50
2021/05/08 07:08:11;;;;;;;6.25;1.30;;;;;;;18.01;60.86;100997.86;1738336;82;21128;-51
2021/05/08 07:10:47;;;;;;;3.62;1.50;;;;;;;17.93;62.13;100998.69;1733376;82;21156;-48
2021/05/08 07:13:15;;;;;;;1.87;0.75;;;;;;;17.82;62.61;100995.25;1745963;82;21164;-47
2021/05/08 07:15:47;;;;;;;1.55;0.93;;;;;;;17.66;62.12;101025.37;1740746;82;21144;-48
2021/05/08 07:18:16;;;;;;;1.72;1.27;;;;;;;17.53;62.18;101036.09;1728763;82;21588;-48
2021/05/08 07:20:45;;;;;;;2.30;1.45;;;;;;;17.45;62.09;101036.87;1727662;82;21576;-52
2021/05/08 07:23:13;;;;;;;2.27;1.07;;;;;;;17.42;61.71;101046.66;1727509;82;21524;-49
2021/05/08 07:25:41;;;;;;;1.85;1.05;;;;;;;17.37;61.47;101041.59;1728504;82;21164;-47
2021/05/08 07:28:13;;;;;;;1.25;0.95;;;;;;;17.34;60.65;101048.33;1745258;82;21136;-51
2021/05/08 07:30:43;;;;;;;2.60;1.02;;;;;;;17.31;59.88;101037.92;1734310;82;21746;-47
2021/05/08 07:33:13;;;;;;;2.27;1.12;;;;;;;17.25;59.78;101038.20;1737921;82;21153;-52
2021/05/08 07:35:41;;;;;;;2.87;1.40;;;;;;;17.18;60.24;101059.59;1741502;82;21136;-46
2021/05/08 07:38:09;;;;;;;1.72;1.20;;;;;;;17.15;60.48;101056.63;1729793;82;21291;-50
2021/05/08 07:40:38;;;;;;;1.70;1.22;;;;;;;17.18;60.40;101067.03;1735430;82;21128;-49
2021/05/08 07:43:09;;;;;;;2.02;1.25;;;;;;;17.20;60.17;101054.66;1733446;82;21156;-47
2021/05/08 07:45:37;;;;;;;2.17;1.12;;;;;;;17.25;61.27;101067.62;1734990;81;21140;-47
2021/05/08 07:48:06;;;;;;;2.60;1.00;;;;;;;17.35;61.06;101066.28;1736577;82;21101;-47
2021/05/08 07:50:34;;;;;;;3.20;1.20;;;;;;;17.44;59.73;101069.34;1730906;82;21325;-46
2021/05/08 07:53:02;;;;;;;2.20;1.15;;;;;;;17.50;59.87;101071.73;1731541;82;21726;-48
2021/05/08 07:55:30;;;;;;;1.85;0.90;;;;;;;17.55;59.84;101075.02;1738381;82;21172;-48
2021/05/08 07:57:58;;;;;;;2.92;1.37;;;;;;;17.59;59.95;101081.86;1739719;82;21596;-48
2021/05/08 08:00:28;;;;;;;1.60;1.20;;;;;;;17.64;60.03;101091.70;1734645;82;21153;-47
2021/05/08 08:02:56;;;;;;;2.72;1.30;;;;;;;17.74;60.37;101085.57;1737428;82;21117;-51
2021/05/08 08:05:25;;;;;;;1.65;1.20;;;;;;;17.85;59.76;101102.56;1733299;82;21147;-50
2021/05/08 08:07:53;;;;;;;3.22;1.22;;;;;;;18.01;58.02;101114.55;1736054;82;21159;-49
2021/05/08 08:10:20;;;;;;;3.95;2.27;;;;;;;18.10;56.79;101115.90;1732164;82;21742;-48
2021/05/08 08:12:50;;;;;;;3.85;1.60;;;;;;;18.14;56.65;101118.78;1741107;81;21557;-47
2021/05/08 08:15:19;;;;;;;3.62;1.70;;;;;;;18.19;56.36;101119.43;1726283;82;21129;-49
2021/05/08 08:17:48;;;;;;;3.72;1.62;;;;;;;18.26;56.75;101141.94;1733177;82;21290;-49
2021/05/08 08:20:16;;;;;;;3.58;1.85;;;;;;;18.34;56.20;101130.57;1728267;82;21222;-47
2021/05/08 08:22:45;;;;;;;4.25;2.10;;;;;;;18.39;55.98;101128.09;1731015;81;21570;-47
2021/05/08 08:25:13;;;;;;;2.17;1.67;;;;;;;18.37;55.63;101145.76;1729407;82;21176;-49
2021/05/08 08:27:41;;;;;;;1.70;1.60;;;;;;;18.35;55.59;101144.12;1748722;82;21140;-47
2021/05/08 08:30:12;;;;;;;3.08;1.62;;;;;;;18.35;55.56;101151.56;1740173;80;21152;-51
2021/05/08 08:32:40;;;;;;;3.67;1.62;;;;;;;18.35;55.87;101154.66;1737428;82;21203;-49
2021/05/08 08:35:10;;;;;;;2.52;2.10;;;;;;;18.32;55.81;101167.98;1735605;82;21184;-46
2021/05/08 08:37:38;;;;;;;2.00;1.80;;;;;;;18.31;55.66;101166.27;1732986;82;21101;-48
2021/05/08 08:40:07;;;;;;;3.17;1.72;;;;;;;18.33;55.67;101169.68;1740612;82;21137;-49
2021/05/08 08:42:36;;;;;;;2.80;1.87;;;;;;;18.39;56.07;101164.98;1740059;82;21159;-47
2021/05/08 08:45:06;;;;;;;2.00;1.72;;;;;;;18.46;55.44;101170.85;1734487;82;21298;-47
2021/05/08 08:47:35;;;;;;;3.98;2.33;;;;;;;18.46;55.39;101166.91;1733481;82;21786;-48
2021/05/08 08:50:11;;;;;;;4.72;2.70;;;;;;;18.52;55.30;101178.01;1737529;82;21108;-49
2021/05/08 08:52:39;;;;;;;5.60;1.92;;;;;;;18.57;54.70;101177.31;1736905;82;21176;-47
2021/05/08 08:55:10;;;;;;;3.37;1.75;;;;;;;18.60;55.00;101182.91;1726793;82;21279;-49
2021/05/08 08:57:43;;;;;;;3.30;2.10;;;;;;;18.63;55.08;101188.02;1737722;82;21271;-49
2021/05/08 09:00:15;;;;;;;3.65;1.67;;;;;;;18.65;54.68;101195.38;1730094;82;21148;-47
2021/05/08 09:02:44;;;;;;;2.33;2.00;;;;;;;18.70;54.14;101189.44;1734667;82;21282;-50
2021/05/08 09:05:19;;;;;;;2.05;1.50;;;;;;;18.69;53.79;101189.06;1738163;82;21156;-49
2021/05/08 09:07:48;;;;;;;3.05;1.82;;;;;;;18.71;54.24;101185.89;1688420;85;21145;-53
2021/05/08 09:10:33;;;;;;;3.17;1.98;;;;;;;18.73;53.68;101203.80;1691146;83;21835;-47
2021/05/08 09:13:03;;;;;;;2.62;1.82;;;;;;;18.74;53.43;101208.13;1655348;87;21203;-50
2021/05/08 09:15:42;;;;;;;2.65;1.90;;;;;;;18.84;53.10;101208.53;1666181;85;21156;-48
2021/05/08 09:18:31;;;;;;;2.87;2.12;;;;;;;18.84;53.28;101215.98;1651597;87;21624;-47
2021/05/08 09:21:00;;;;;;;4.33;1.87;;;;;;;18.86;52.88;101210.17;1667019;86;21165;-51
2021/05/08 09:23:40;;;;;;;3.08;1.75;;;;;;;18.86;52.64;101207.53;1655245;87;21649;-49
2021/05/08 09:26:11;;;;;;;3.50;2.25;;;;;;;18.85;52.16;101203.20;1671351;84;21302;-47
2021/05/08 09:28:43;;;;;;;2.25;2.02;;;;;;;18.86;52.06;101224.67;1655440;87;21151;-47
2021/05/08 09:31:17;;;;;;;2.37;2.10;;;;;;;18.90;52.31;101228.04;1805548;79;22941;-50
2021/05/08 09:33:51;;;;;;;2.98;1.82;;;;;;;18.86;52.31;101229.95;1781201;80;21270;-46
2021/05/08 09:36:19;;;;;;;1.75;1.65;;;;;;;18.89;52.29;101232.45;1783559;80;21112;-49
2021/05/08 09:38:47;;;;;;;2.08;1.90;;;;;;;18.99;52.39;101238.98;1789809;80;21121;-48
2021/05/08 09:41:17;;;;;;;3.65;2.17;;;;;;;19.09;52.37;101254.75;1782239;80;21160;-49
2021/05/08 09:43:46;;;;;;;3.67;2.50;;;;;;;19.21;52.46;101254.14;1777797;80;21552;-47
2021/05/08 09:46:25;;;;;;;3.80;2.33;;;;;;;19.28;52.25;101247.64;1785651;80;21143;-47
2021/05/08 09:49:15;;;;;;;2.98;2.67;;;;;;;19.34;52.25;101246.05;1787214;80;21266;-48
2021/05/08 09:51:43;;;;;;;4.70;2.20;;;;;;;19.40;52.14;101251.02;1783268;80;21581;-48
2021/05/08 09:54:15;;;;;;;5.75;2.47;;;;;;;19.45;50.99;101257.39;1785881;80;21179;-47
2021/05/08 09:56:49;;;;;;;2.67;2.45;;;;;;;19.53;50.82;101252.58;1783762;80;21148;-46
2021/05/08 09:59:27;;;;;;;5.33;2.98;;;;;;;19.61;49.87;101258.78;1782731;80;21309;-47
2021/05/08 10:02:08;;;;;;;4.95;2.40;;;;;;;19.65;49.67;101259.01;1740401;81;21173;-46
2021/05/08 10:04:44;;;;;;;3.17;2.60;;;;;;;19.67;49.85;101265.06;1720567;83;21726;-48
2021/05/08 10:07:22;;;;;;;5.83;2.85;;;;;;;19.65;50.13;101264.29;1624027;88;21688;-48
2021/05/08 10:09:57;;;;;;;3.27;1.85;;;;;;;19.62;50.27;101267.10;1619109;88;21219;-48
2021/05/08 10:12:27;;;;;;;2.17;1.98;;;;;;;19.59;50.81;101264.60;1612061;88;21220;-48
2021/05/08 10:14:58;;;;;;;3.62;1.80;;;;;;;19.58;50.58;101269.02;1616882;88;21204;-50
2021/05/08 10:17:27;;;;;;;3.70;2.00;;;;;;;19.54;50.33;101266.64;1614329;88;21227;-47
2021/05/08 10:20:11;;;;;;;2.45;2.25;;;;;;;19.53;49.82;101278.98;1618837;88;21251;-47
2021/05/08 10:23:02;;;;;;;3.80;2.33;;;;;;;19.54;50.08;101282.48;1617612;88;21631;-49
2021/05/08 10:25:31;;;;;;;6.73;2.57;;;;;;;19.51;48.67;101279.98;1616607;88;21239;-46
2021/05/08 10:27:59;;;;;;;2.40;2.20;;;;;;;19.42;48.50;101276.01;1583298;89;21334;-50
2021/05/08 10:30:39;;;;;;;5.65;2.20;;;;;;;19.35;48.79;101284.69;1609003;88;21238;-49
2021/05/08 10:33:15;;;;;;;4.53;2.98;;;;;;;19.33;48.92;101277.31;1807478;79;22972;-49
2021/05/08 10:35:46;;;;;;;5.00;3.15;;;;;;;19.23;48.76;101274.71;1789688;80;21159;-50
2021/05/08 10:38:34;;;;;;;5.00;3.12;;;;;;;19.16;49.04;101279.91;1790488;80;21155;-47
2021/05/08 10:41:05;;;;;;;4.83;3.47;;;;;;;19.10;48.77;101299.97;1778046;80;21100;-50
2021/05/08 10:46:28;;;;;;;3.50;2.92;;;;;;;19.04;50.03;101304.22;1805200;79;22980;-52
2021/05/08 10:49:16;;;;;;;2.92;2.70;;;;;;;18.98;49.08;101307.16;1786333;80;21572;-45
2021/05/08 10:52:00;;;;;;;3.40;3.10;;;;;;;18.98;49.54;101308.95;1787176;80;21560;-51
2021/05/08 10:54:43;;;;;;;2.90;2.62;;;;;;;19.00;49.52;101317.16;1771264;80;21160;-48
2021/05/08 10:57:24;;;;;;;4.80;3.22;;;;;;;19.00;49.71;101313.20;1774241;80;21113;-47
2021/05/08 11:00:10;;;;;;;3.42;2.70;;;;;;;19.01;50.42;101317.57;1749295;81;21700;-49
2021/05/08 11:02:48;;;;;;;3.37;2.58;;;;;;;19.03;49.48;101324.95;1724933;82;21578;-49
2021/05/08 11:05:27;;;;;;;6.58;2.62;;;;;;;19.02;49.29;101319.27;1720889;82;21168;-47
2021/05/08 11:07:55;;;;;;;3.80;2.70;;;;;;;19.05;48.59;101329.69;1643524;86;21427;-49
2021/05/08 11:10:37;;;;;;;3.98;2.67;;;;;;;19.04;48.31;101322.69;1640411;87;21357;-46
2021/05/08 11:13:17;;;;;;;2.33;2.08;;;;;;;19.05;47.86;101336.73;1660351;86;21649;-47
2021/05/08 11:16:03;;;;;;;2.42;1.77;;;;;;;19.06;48.11;101341.92;1652270;86;21181;-47
2021/05/08 11:18:40;;;;;;;2.15;1.75;;;;;;;19.08;47.88;101340.07;1651203;86;21188;-50
2021/05/08 11:21:20;;;;;;;3.58;1.90;;;;;;;19.10;48.34;101332.11;1638978;87;21635;-48
2021/05/08 11:24:05;;;;;;;2.83;1.50;;;;;;;19.10;47.25;101338.22;1671599;86;21172;-50
2021/05/08 11:26:43;;;;;;;1.80;1.30;;;;;;;19.08;46.36;101333.48;1807219;77;23531;-46
2021/05/08 11:29:30;;;;;;;4.03;1.67;;;;;;;18.98;46.63;101348.52;1761524;80;21101;-48
2021/05/08 11:32:01;;;;;;;5.47;1.42;;;;;;;18.91;46.43;101345.31;1764833;81;21132;-47
2021/05/08 11:34:30;;;;;;;2.07;1.50;;;;;;;18.85;46.46;101315.73;1766974;81;21210;-53
2021/05/08 11:37:09;;;;;;;2.55;1.30;;;;;;;18.79;46.20;101341.92;1754889;81;21136;-47
2021/05/08 11:39:44;;;;;;;9.00;1.75;;;;;;;18.69;46.12;101328.78;1749962;81;21156;-50